Terminal Aerodrome Forecast
Issued by NWS Shreveport, LA

Home | Current Version | Previous Version | Text Only | Print | Product List | Glossary On
Versions: 1 2 3 4 5 6 7 8 9 10 11 12 13 14 15 16
000
FTUS44 KSHV 300500
TAFELD
TAF
KELD 300526Z 3006/3106 16003KT P6SM BKN150 BKN250
     FM301300 VRB03KT 5SM BR VCSH SCT007 BKN013
     FM301500 16004KT 5SM -RA BR OVC015
     FM301800 16008KT 6SM -RA BR VCTS OVC030CB=

USA.gov is the U.S. government's official web portal to all federal, state and local government web resources and services.